sensor_id;sensor_type;location;lat;lon;timestamp;P1;durP1;ratioP1;P2;durP2;ratioP2
1569;SDS011;778;50.120;8.698;2022-09-23T00:01:27;3.70;;;3.40;;
1569;SDS011;778;50.120;8.698;2022-09-23T00:03:57;5.33;;;4.23;;
1569;SDS011;778;50.120;8.698;2022-09-23T00:06:26;4.10;;;3.77;;
1569;SDS011;778;50.120;8.698;2022-09-23T00:08:55;4.53;;;3.60;;
1569;SDS011;778;50.120;8.698;2022-09-23T00:11:42;5.00;;;4.23;;
1569;SDS011;778;50.120;8.698;2022-09-23T00:14:28;3.70;;;3.40;;
1569;SDS011;778;50.120;8.698;2022-09-23T00:16:56;4.83;;;3.70;;
1569;SDS011;778;50.120;8.698;2022-09-23T00:19:25;3.63;;;3.33;;
1569;SDS011;778;50.120;8.698;2022-09-23T00:21:54;9.27;;;3.73;;
1569;SDS011;778;50.120;8.698;2022-09-23T00:24:23;5.10;;;3.87;;
1569;SDS011;778;50.120;8.698;2022-09-23T00:26:53;4.80;;;3.33;;
1569;SDS011;778;50.120;8.698;2022-09-23T00:29:21;4.03;;;3.73;;
1569;SDS011;778;50.120;8.698;2022-09-23T00:31:52;4.73;;;3.60;;
1569;SDS011;778;50.120;8.698;2022-09-23T00:34:21;6.37;;;3.50;;
1569;SDS011;778;50.120;8.698;2022-09-23T00:36:49;4.87;;;3.30;;
1569;SDS011;778;50.120;8.698;2022-09-23T00:39:18;5.03;;;4.27;;
1569;SDS011;778;50.120;8.698;2022-09-23T00:41:46;4.60;;;3.40;;
1569;SDS011;778;50.120;8.698;2022-09-23T00:47:16;3.93;;;3.63;;
1569;SDS011;778;50.120;8.698;2022-09-23T00:49:49;3.87;;;3.53;;
1569;SDS011;778;50.120;8.698;2022-09-23T00:52:25;3.93;;;3.63;;
1569;SDS011;778;50.120;8.698;2022-09-23T00:54:55;4.10;;;3.57;;
1569;SDS011;778;50.120;8.698;2022-09-23T00:57:26;6.10;;;4.27;;
1569;SDS011;778;50.120;8.698;2022-09-23T00:59:58;3.30;;;3.00;;
1569;SDS011;778;50.120;8.698;2022-09-23T01:02:26;3.90;;;3.53;;
1569;SDS011;778;50.120;8.698;2022-09-23T01:04:55;4.20;;;3.47;;
1569;SDS011;778;50.120;8.698;2022-09-23T01:07:24;3.60;;;3.30;;
1569;SDS011;778;50.120;8.698;2022-09-23T01:09:53;3.70;;;3.40;;
1569;SDS011;778;50.120;8.698;2022-09-23T01:15:25;3.80;;;3.50;;
1569;SDS011;778;50.120;8.698;2022-09-23T01:18:02;3.83;;;3.40;;
1569;SDS011;778;50.120;8.698;2022-09-23T01:20:57;4.80;;;3.23;;
1569;SDS011;778;50.120;8.698;2022-09-23T01:23:49;3.87;;;3.57;;
1569;SDS011;778;50.120;8.698;2022-09-23T01:26:54;4.10;;;3.80;;
1569;SDS011;778;50.120;8.698;2022-09-23T01:29:39;3.77;;;3.47;;
1569;SDS011;778;50.120;8.698;2022-09-23T01:33:03;3.30;;;3.10;;
1569;SDS011;778;50.120;8.698;2022-09-23T01:38:48;3.50;;;3.20;;
1569;SDS011;778;50.120;8.698;2022-09-23T01:41:28;3.73;;;3.43;;
1569;SDS011;778;50.120;8.698;2022-09-23T01:44:15;5.03;;;3.00;;
1569;SDS011;778;50.120;8.698;2022-09-23T01:46:50;3.50;;;3.20;;
1569;SDS011;778;50.120;8.698;2022-09-23T01:49:26;4.90;;;3.80;;
1569;SDS011;778;50.120;8.698;2022-09-23T01:52:03;5.20;;;3.70;;
1569;SDS011;778;50.120;8.698;2022-09-23T01:54:36;5.10;;;3.63;;
1569;SDS011;778;50.120;8.698;2022-09-23T01:57:11;3.90;;;3.60;;
1569;SDS011;778;50.120;8.698;2022-09-23T01:59:46;3.57;;;3.27;;
1569;SDS011;778;50.120;8.698;2022-09-23T02:02:19;4.00;;;3.60;;
1569;SDS011;778;50.120;8.698;2022-09-23T02:04:56;4.03;;;3.63;;
1569;SDS011;778;50.120;8.698;2022-09-23T02:07:30;3.40;;;3.10;;
1569;SDS011;778;50.120;8.698;2022-09-23T02:10:05;4.50;;;3.37;;
1569;SDS011;778;50.120;8.698;2022-09-23T02:12:39;3.50;;;3.20;;
1569;SDS011;778;50.120;8.698;2022-09-23T02:15:15;3.63;;;3.33;;
1569;SDS011;778;50.120;8.698;2022-09-23T02:17:48;5.70;;;3.73;;
1569;SDS011;778;50.120;8.698;2022-09-23T02:20:22;6.10;;;3.40;;
1569;SDS011;778;50.120;8.698;2022-09-23T02:22:58;3.27;;;2.77;;
1569;SDS011;778;50.120;8.698;2022-09-23T02:25:34;3.60;;;3.30;;
1569;SDS011;778;50.120;8.698;2022-09-23T02:28:15;3.90;;;2.90;;
1569;SDS011;778;50.120;8.698;2022-09-23T02:30:51;4.80;;;3.20;;
1569;SDS011;778;50.120;8.698;2022-09-23T02:33:33;7.17;;;3.97;;
1569;SDS011;778;50.120;8.698;2022-09-23T02:36:11;4.27;;;3.87;;
1569;SDS011;778;50.120;8.698;2022-09-23T02:38:49;4.10;;;3.80;;
1569;SDS011;778;50.120;8.698;2022-09-23T02:41:24;3.80;;;3.50;;
1569;SDS011;778;50.120;8.698;2022-09-23T02:44:00;4.60;;;3.67;;
1569;SDS011;778;50.120;8.698;2022-09-23T02:46:33;4.13;;;3.73;;
1569;SDS011;778;50.120;8.698;2022-09-23T02:49:04;4.60;;;3.37;;
1569;SDS011;778;50.120;8.698;2022-09-23T02:51:40;3.90;;;3.30;;
1569;SDS011;778;50.120;8.698;2022-09-23T02:54:12;4.20;;;3.77;;
1569;SDS011;778;50.120;8.698;2022-09-23T02:56:45;3.60;;;3.30;;
1569;SDS011;778;50.120;8.698;2022-09-23T02:59:15;5.57;;;3.60;;
1569;SDS011;778;50.120;8.698;2022-09-23T03:01:50;3.70;;;3.43;;
1569;SDS011;778;50.120;8.698;2022-09-23T03:04:34;4.10;;;3.80;;
1569;SDS011;778;50.120;8.698;2022-09-23T03:07:15;3.80;;;3.50;;
1569;SDS011;778;50.120;8.698;2022-09-23T03:09:50;4.13;;;3.83;;
1569;SDS011;778;50.120;8.698;2022-09-23T03:12:24;4.00;;;3.50;;
1569;SDS011;778;50.120;8.698;2022-09-23T03:15:04;5.47;;;3.67;;
1569;SDS011;778;50.120;8.698;2022-09-23T03:17:49;3.87;;;3.57;;
1569;SDS011;778;50.120;8.698;2022-09-23T03:20:30;4.53;;;4.13;;
1569;SDS011;778;50.120;8.698;2022-09-23T03:23:05;4.33;;;3.70;;
1569;SDS011;778;50.120;8.698;2022-09-23T03:25:38;4.50;;;4.10;;
1569;SDS011;778;50.120;8.698;2022-09-23T03:28:09;4.47;;;4.07;;
1569;SDS011;778;50.120;8.698;2022-09-23T03:30:40;4.97;;;4.47;;
1569;SDS011;778;50.120;8.698;2022-09-23T03:33:10;4.30;;;3.97;;
1569;SDS011;778;50.120;8.698;2022-09-23T03:35:43;3.97;;;3.57;;
1569;SDS011;778;50.120;8.698;2022-09-23T03:38:38;4.40;;;4.00;;
1569;SDS011;778;50.120;8.698;2022-09-23T03:41:12;7.63;;;4.70;;
1569;SDS011;778;50.120;8.698;2022-09-23T03:43:48;5.33;;;4.80;;
1569;SDS011;778;50.120;8.698;2022-09-23T03:46:18;5.40;;;5.00;;
1569;SDS011;778;50.120;8.698;2022-09-23T03:48:47;8.57;;;4.60;;
1569;SDS011;778;50.120;8.698;2022-09-23T03:51:19;5.27;;;4.77;;
1569;SDS011;778;50.120;8.698;2022-09-23T03:53:51;4.57;;;4.17;;
1569;SDS011;778;50.120;8.698;2022-09-23T03:56:19;5.67;;;4.60;;
1569;SDS011;778;50.120;8.698;2022-09-23T03:58:48;7.37;;;4.20;;
1569;SDS011;778;50.120;8.698;2022-09-23T04:01:16;3.50;;;3.30;;
1569;SDS011;778;50.120;8.698;2022-09-23T04:03:45;4.40;;;4.03;;
1569;SDS011;778;50.120;8.698;2022-09-23T04:06:14;5.77;;;4.23;;
1569;SDS011;778;50.120;8.698;2022-09-23T04:08:42;4.23;;;3.77;;
1569;SDS011;778;50.120;8.698;2022-09-23T04:11:12;6.10;;;4.60;;
1569;SDS011;778;50.120;8.698;2022-09-23T04:13:41;6.03;;;4.07;;
1569;SDS011;778;50.120;8.698;2022-09-23T04:16:09;4.23;;;3.93;;
1569;SDS011;778;50.120;8.698;2022-09-23T04:18:37;5.63;;;4.00;;
1569;SDS011;778;50.120;8.698;2022-09-23T04:21:06;5.23;;;3.93;;
1569;SDS011;778;50.120;8.698;2022-09-23T04:23:34;4.20;;;3.80;;
1569;SDS011;778;50.120;8.698;2022-09-23T04:26:03;6.80;;;3.30;;
1569;SDS011;778;50.120;8.698;2022-09-23T04:28:33;5.40;;;4.00;;
1569;SDS011;778;50.120;8.698;2022-09-23T04:31:03;4.47;;;3.97;;
1569;SDS011;778;50.120;8.698;2022-09-23T04:33:32;4.07;;;3.77;;
1569;SDS011;778;50.120;8.698;2022-09-23T04:36:01;5.80;;;3.83;;
1569;SDS011;778;50.120;8.698;2022-09-23T04:38:29;4.27;;;3.97;;
1569;SDS011;778;50.120;8.698;2022-09-23T04:40:58;3.77;;;3.47;;
1569;SDS011;778;50.120;8.698;2022-09-23T04:43:26;4.67;;;4.23;;
1569;SDS011;778;50.120;8.698;2022-09-23T04:46:00;4.17;;;3.63;;
1569;SDS011;778;50.120;8.698;2022-09-23T04:48:31;4.27;;;3.97;;
1569;SDS011;778;50.120;8.698;2022-09-23T04:51:00;4.27;;;3.87;;
1569;SDS011;778;50.120;8.698;2022-09-23T04:53:30;6.00;;;4.07;;
1569;SDS011;778;50.120;8.698;2022-09-23T04:56:00;4.47;;;4.07;;
1569;SDS011;778;50.120;8.698;2022-09-23T04:58:28;5.43;;;4.93;;
1569;SDS011;778;50.120;8.698;2022-09-23T05:00:57;6.40;;;5.70;;
1569;SDS011;778;50.120;8.698;2022-09-23T05:03:31;11.60;;;5.87;;
1569;SDS011;778;50.120;8.698;2022-09-23T05:06:01;6.53;;;6.03;;
1569;SDS011;778;50.120;8.698;2022-09-23T05:08:29;6.43;;;5.83;;
1569;SDS011;778;50.120;8.698;2022-09-23T05:10:58;6.17;;;5.10;;
1569;SDS011;778;50.120;8.698;2022-09-23T05:13:27;5.50;;;4.70;;
1569;SDS011;778;50.120;8.698;2022-09-23T05:15:57;7.40;;;5.50;;
1569;SDS011;778;50.120;8.698;2022-09-23T05:18:26;6.27;;;5.30;;
1569;SDS011;778;50.120;8.698;2022-09-23T05:20:56;6.50;;;4.50;;
1569;SDS011;778;50.120;8.698;2022-09-23T05:23:25;6.00;;;5.50;;
1569;SDS011;778;50.120;8.698;2022-09-23T05:25:55;5.53;;;4.97;;
1569;SDS011;778;50.120;8.698;2022-09-23T05:28:24;4.33;;;3.73;;
1569;SDS011;778;50.120;8.698;2022-09-23T05:31:00;5.00;;;4.60;;
1569;SDS011;778;50.120;8.698;2022-09-23T05:33:29;5.77;;;5.27;;
1569;SDS011;778;50.120;8.698;2022-09-23T05:36:00;6.93;;;6.30;;
1569;SDS011;778;50.120;8.698;2022-09-23T05:38:30;6.63;;;5.70;;
1569;SDS011;778;50.120;8.698;2022-09-23T05:40:59;11.53;;;5.87;;
1569;SDS011;778;50.120;8.698;2022-09-23T05:43:30;6.60;;;5.10;;
1569;SDS011;778;50.120;8.698;2022-09-23T05:46:03;6.60;;;5.47;;
1569;SDS011;778;50.120;8.698;2022-09-23T05:48:34;6.20;;;4.50;;
1569;SDS011;778;50.120;8.698;2022-09-23T05:51:05;5.00;;;4.50;;
1569;SDS011;778;50.120;8.698;2022-09-23T05:53:38;13.33;;;5.47;;
1569;SDS011;778;50.120;8.698;2022-09-23T05:56:10;12.57;;;4.93;;
1569;SDS011;778;50.120;8.698;2022-09-23T05:58:39;10.00;;;5.60;;
1569;SDS011;778;50.120;8.698;2022-09-23T06:01:08;7.80;;;5.77;;
1569;SDS011;778;50.120;8.698;2022-09-23T06:03:38;6.80;;;4.90;;
1569;SDS011;778;50.120;8.698;2022-09-23T06:06:11;5.30;;;4.80;;
1569;SDS011;778;50.120;8.698;2022-09-23T06:08:40;5.00;;;4.60;;
1569;SDS011;778;50.120;8.698;2022-09-23T06:11:09;5.17;;;4.67;;
1569;SDS011;778;50.120;8.698;2022-09-23T06:13:38;7.87;;;4.30;;
1569;SDS011;778;50.120;8.698;2022-09-23T06:16:08;5.13;;;4.27;;
1569;SDS011;778;50.120;8.698;2022-09-23T06:18:39;5.10;;;3.80;;
1569;SDS011;778;50.120;8.698;2022-09-23T06:21:11;4.80;;;4.40;;
1569;SDS011;778;50.120;8.698;2022-09-23T06:23:41;5.37;;;4.87;;
1569;SDS011;778;50.120;8.698;2022-09-23T06:26:10;7.50;;;6.07;;
1569;SDS011;778;50.120;8.698;2022-09-23T06:28:42;6.70;;;6.00;;
1569;SDS011;778;50.120;8.698;2022-09-23T06:31:12;5.43;;;4.57;;
1569;SDS011;778;50.120;8.698;2022-09-23T06:33:42;4.83;;;4.43;;
1569;SDS011;778;50.120;8.698;2022-09-23T06:36:13;5.73;;;4.93;;
1569;SDS011;778;50.120;8.698;2022-09-23T06:39:02;6.40;;;4.70;;
1569;SDS011;778;50.120;8.698;2022-09-23T06:41:30;5.63;;;5.13;;
1569;SDS011;778;50.120;8.698;2022-09-23T06:43:59;7.00;;;5.20;;
1569;SDS011;778;50.120;8.698;2022-09-23T06:46:27;10.37;;;5.27;;
1569;SDS011;778;50.120;8.698;2022-09-23T06:48:57;7.43;;;5.17;;
1569;SDS011;778;50.120;8.698;2022-09-23T06:51:29;5.97;;;5.47;;
1569;SDS011;778;50.120;8.698;2022-09-23T06:53:58;7.60;;;5.13;;
1569;SDS011;778;50.120;8.698;2022-09-23T06:56:26;5.50;;;5.00;;
1569;SDS011;778;50.120;8.698;2022-09-23T06:59:00;6.83;;;6.00;;
1569;SDS011;778;50.120;8.698;2022-09-23T07:01:28;9.80;;;5.67;;
1569;SDS011;778;50.120;8.698;2022-09-23T07:03:57;5.63;;;5.13;;
1569;SDS011;778;50.120;8.698;2022-09-23T07:06:26;5.50;;;5.00;;
1569;SDS011;778;50.120;8.698;2022-09-23T07:08:55;6.13;;;5.27;;
1569;SDS011;778;50.120;8.698;2022-09-23T07:11:24;5.93;;;5.47;;
1569;SDS011;778;50.120;8.698;2022-09-23T07:13:53;7.13;;;5.80;;
1569;SDS011;778;50.120;8.698;2022-09-23T07:16:21;8.30;;;5.67;;
1569;SDS011;778;50.120;8.698;2022-09-23T07:18:52;7.87;;;4.57;;
1569;SDS011;778;50.120;8.698;2022-09-23T07:21:21;6.00;;;5.50;;
1569;SDS011;778;50.120;8.698;2022-09-23T07:23:50;5.27;;;4.77;;
1569;SDS011;778;50.120;8.698;2022-09-23T07:26:23;7.53;;;5.73;;
1569;SDS011;778;50.120;8.698;2022-09-23T07:28:52;5.77;;;5.37;;
1569;SDS011;778;50.120;8.698;2022-09-23T07:31:22;6.03;;;5.53;;
1569;SDS011;778;50.120;8.698;2022-09-23T07:34:04;6.90;;;4.90;;
1569;SDS011;778;50.120;8.698;2022-09-23T07:36:34;6.17;;;5.63;;
1569;SDS011;778;50.120;8.698;2022-09-23T07:39:06;5.57;;;5.07;;
1569;SDS011;778;50.120;8.698;2022-09-23T07:41:38;6.23;;;5.70;;
1569;SDS011;778;50.120;8.698;2022-09-23T07:44:10;5.77;;;5.17;;
1569;SDS011;778;50.120;8.698;2022-09-23T07:46:39;5.40;;;4.73;;
1569;SDS011;778;50.120;8.698;2022-09-23T07:49:07;6.47;;;5.87;;
1569;SDS011;778;50.120;8.698;2022-09-23T07:51:37;6.80;;;5.23;;
1569;SDS011;778;50.120;8.698;2022-09-23T07:54:10;22.87;;;6.50;;
1569;SDS011;778;50.120;8.698;2022-09-23T07:56:42;8.90;;;5.50;;
1569;SDS011;778;50.120;8.698;2022-09-23T07:59:12;5.40;;;5.00;;
1569;SDS011;778;50.120;8.698;2022-09-23T08:01:44;7.67;;;5.57;;
1569;SDS011;778;50.120;8.698;2022-09-23T08:04:14;6.70;;;5.40;;
1569;SDS011;778;50.120;8.698;2022-09-23T08:06:45;6.03;;;5.30;;
1569;SDS011;778;50.120;8.698;2022-09-23T08:09:17;5.73;;;5.33;;
1569;SDS011;778;50.120;8.698;2022-09-23T08:11:48;6.93;;;6.23;;
1569;SDS011;778;50.120;8.698;2022-09-23T08:14:17;8.17;;;5.23;;
1569;SDS011;778;50.120;8.698;2022-09-23T08:16:47;5.63;;;5.10;;
1569;SDS011;778;50.120;8.698;2022-09-23T08:19:17;8.80;;;5.10;;
1569;SDS011;778;50.120;8.698;2022-09-23T08:21:45;9.90;;;4.83;;
1569;SDS011;778;50.120;8.698;2022-09-23T08:24:15;6.00;;;5.10;;
1569;SDS011;778;50.120;8.698;2022-09-23T08:26:45;5.73;;;5.23;;
1569;SDS011;778;50.120;8.698;2022-09-23T08:29:16;6.13;;;4.97;;
1569;SDS011;778;50.120;8.698;2022-09-23T08:31:47;10.47;;;7.30;;
1569;SDS011;778;50.120;8.698;2022-09-23T08:34:16;5.37;;;4.77;;
1569;SDS011;778;50.120;8.698;2022-09-23T08:36:47;7.07;;;6.37;;
1569;SDS011;778;50.120;8.698;2022-09-23T08:39:17;7.67;;;5.80;;
1569;SDS011;778;50.120;8.698;2022-09-23T08:41:57;6.83;;;5.40;;
1569;SDS011;778;50.120;8.698;2022-09-23T08:44:39;8.83;;;5.90;;
1569;SDS011;778;50.120;8.698;2022-09-23T08:47:15;7.20;;;5.43;;
1569;SDS011;778;50.120;8.698;2022-09-23T08:49:54;5.90;;;5.40;;
1569;SDS011;778;50.120;8.698;2022-09-23T08:52:30;5.50;;;5.00;;
1569;SDS011;778;50.120;8.698;2022-09-23T08:55:02;5.20;;;4.60;;
1569;SDS011;778;50.120;8.698;2022-09-23T08:57:39;7.70;;;6.53;;
1569;SDS011;778;50.120;8.698;2022-09-23T09:00:35;5.80;;;5.30;;
1569;SDS011;778;50.120;8.698;2022-09-23T09:03:14;5.80;;;5.30;;
1569;SDS011;778;50.120;8.698;2022-09-23T09:05:48;6.97;;;5.40;;
1569;SDS011;778;50.120;8.698;2022-09-23T09:08:21;7.13;;;5.60;;
1569;SDS011;778;50.120;8.698;2022-09-23T09:10:56;5.83;;;5.23;;
1569;SDS011;778;50.120;8.698;2022-09-23T09:13:30;6.77;;;5.47;;
1569;SDS011;778;50.120;8.698;2022-09-23T09:16:05;4.90;;;4.50;;
1569;SDS011;778;50.120;8.698;2022-09-23T09:19:06;5.43;;;5.10;;
1569;SDS011;778;50.120;8.698;2022-09-23T09:21:46;5.30;;;4.80;;
1569;SDS011;778;50.120;8.698;2022-09-23T09:24:20;6.97;;;5.23;;
1569;SDS011;778;50.120;8.698;2022-09-23T09:26:55;7.20;;;5.10;;
1569;SDS011;778;50.120;8.698;2022-09-23T09:29:27;5.03;;;4.57;;
1569;SDS011;778;50.120;8.698;2022-09-23T09:32:08;9.67;;;5.50;;
1569;SDS011;778;50.120;8.698;2022-09-23T09:34:46;5.27;;;4.77;;
1569;SDS011;778;50.120;8.698;2022-09-23T09:37:22;4.90;;;4.40;;
1569;SDS011;778;50.120;8.698;2022-09-23T09:39:58;5.07;;;4.40;;
1569;SDS011;778;50.120;8.698;2022-09-23T09:42:29;7.30;;;4.37;;
1569;SDS011;778;50.120;8.698;2022-09-23T09:45:09;5.97;;;5.20;;
1569;SDS011;778;50.120;8.698;2022-09-23T09:47:46;6.10;;;5.20;;
1569;SDS011;778;50.120;8.698;2022-09-23T09:53:14;5.10;;;4.63;;
1569;SDS011;778;50.120;8.698;2022-09-23T09:56:00;4.50;;;4.20;;
1569;SDS011;778;50.120;8.698;2022-09-23T09:58:33;5.90;;;5.30;;
1569;SDS011;778;50.120;8.698;2022-09-23T10:01:17;4.73;;;4.43;;
1569;SDS011;778;50.120;8.698;2022-09-23T10:03:49;5.07;;;3.80;;
1569;SDS011;778;50.120;8.698;2022-09-23T10:06:24;3.93;;;3.63;;
1569;SDS011;778;50.120;8.698;2022-09-23T10:09:11;5.20;;;3.90;;
1569;SDS011;778;50.120;8.698;2022-09-23T10:12:01;4.60;;;4.20;;
1569;SDS011;778;50.120;8.698;2022-09-23T10:14:40;6.30;;;4.10;;
1569;SDS011;778;50.120;8.698;2022-09-23T10:17:14;4.67;;;4.27;;
1569;SDS011;778;50.120;8.698;2022-09-23T10:19:47;5.43;;;4.90;;
1569;SDS011;778;50.120;8.698;2022-09-23T10:22:19;5.67;;;4.10;;
1569;SDS011;778;50.120;8.698;2022-09-23T10:24:52;4.30;;;3.80;;
1569;SDS011;778;50.120;8.698;2022-09-23T10:27:25;4.33;;;3.80;;
1569;SDS011;778;50.120;8.698;2022-09-23T10:29:58;5.20;;;4.23;;
1569;SDS011;778;50.120;8.698;2022-09-23T10:32:31;4.80;;;4.40;;
1569;SDS011;778;50.120;8.698;2022-09-23T10:35:11;5.37;;;3.60;;
1569;SDS011;778;50.120;8.698;2022-09-23T10:37:43;3.57;;;3.37;;
1569;SDS011;778;50.120;8.698;2022-09-23T10:40:15;3.67;;;3.20;;
1569;SDS011;778;50.120;8.698;2022-09-23T10:43:10;3.90;;;3.60;;
1569;SDS011;778;50.120;8.698;2022-09-23T10:46:18;3.93;;;3.30;;
1569;SDS011;778;50.120;8.698;2022-09-23T10:52:23;3.30;;;3.10;;
1569;SDS011;778;50.120;8.698;2022-09-23T10:55:14;3.87;;;2.87;;
1569;SDS011;778;50.120;8.698;2022-09-23T10:58:02;4.80;;;3.20;;
1569;SDS011;778;50.120;8.698;2022-09-23T11:00:52;5.50;;;3.77;;
1569;SDS011;778;50.120;8.698;2022-09-23T11:07:21;3.50;;;3.20;;
1569;SDS011;778;50.120;8.698;2022-09-23T11:13:17;3.30;;;2.93;;
1569;SDS011;778;50.120;8.698;2022-09-23T11:16:08;6.23;;;3.23;;
1569;SDS011;778;50.120;8.698;2022-09-23T11:18:51;9.67;;;3.53;;
1569;SDS011;778;50.120;8.698;2022-09-23T11:21:37;3.17;;;2.97;;
1569;SDS011;778;50.120;8.698;2022-09-23T11:24:29;3.00;;;2.43;;
1569;SDS011;778;50.120;8.698;2022-09-23T11:27:28;4.17;;;3.20;;
1569;SDS011;778;50.120;8.698;2022-09-23T11:30:09;3.40;;;3.10;;
1569;SDS011;778;50.120;8.698;2022-09-23T11:35:40;3.77;;;3.40;;
1569;SDS011;778;50.120;8.698;2022-09-23T11:38:16;3.70;;;3.40;;
1569;SDS011;778;50.120;8.698;2022-09-23T11:40:54;4.30;;;3.10;;
1569;SDS011;778;50.120;8.698;2022-09-23T11:43:26;3.60;;;3.30;;
1569;SDS011;778;50.120;8.698;2022-09-23T11:45:59;3.87;;;3.57;;
1569;SDS011;778;50.120;8.698;2022-09-23T11:48:35;3.40;;;3.10;;
1569;SDS011;778;50.120;8.698;2022-09-23T11:51:09;6.20;;;2.77;;
1569;SDS011;778;50.120;8.698;2022-09-23T11:53:42;3.40;;;2.50;;
1569;SDS011;778;50.120;8.698;2022-09-23T11:56:17;3.63;;;3.10;;
1569;SDS011;778;50.120;8.698;2022-09-23T11:59:02;3.20;;;2.77;;
1569;SDS011;778;50.120;8.698;2022-09-23T12:01:38;3.20;;;2.77;;
1569;SDS011;778;50.120;8.698;2022-09-23T12:04:14;4.20;;;2.30;;
1569;SDS011;778;50.120;8.698;2022-09-23T12:06:53;4.23;;;2.70;;
1569;SDS011;778;50.120;8.698;2022-09-23T12:09:29;3.27;;;2.40;;
1569;SDS011;778;50.120;8.698;2022-09-23T12:12:25;3.70;;;2.60;;
1569;SDS011;778;50.120;8.698;2022-09-23T12:15:09;2.67;;;2.43;;
1569;SDS011;778;50.120;8.698;2022-09-23T12:17:53;7.70;;;2.87;;
1569;SDS011;778;50.120;8.698;2022-09-23T12:27:16;3.67;;;3.37;;
1569;SDS011;778;50.120;8.698;2022-09-23T12:29:55;3.13;;;2.80;;
1569;SDS011;778;50.120;8.698;2022-09-23T12:32:27;3.40;;;2.70;;
1569;SDS011;778;50.120;8.698;2022-09-23T12:34:58;2.50;;;2.30;;
1569;SDS011;778;50.120;8.698;2022-09-23T12:37:30;2.80;;;2.40;;
1569;SDS011;778;50.120;8.698;2022-09-23T12:40:04;4.20;;;3.20;;
1569;SDS011;778;50.120;8.698;2022-09-23T12:42:40;2.90;;;2.70;;
1569;SDS011;778;50.120;8.698;2022-09-23T12:45:16;3.70;;;2.80;;
1569;SDS011;778;50.120;8.698;2022-09-23T12:48:03;2.83;;;2.63;;
1569;SDS011;778;50.120;8.698;2022-09-23T12:50:55;2.90;;;2.70;;
1569;SDS011;778;50.120;8.698;2022-09-23T12:53:51;2.67;;;2.47;;
1569;SDS011;778;50.120;8.698;2022-09-23T12:56:26;3.20;;;2.90;;
1569;SDS011;778;50.120;8.698;2022-09-23T12:59:25;6.53;;;3.00;;
1569;SDS011;778;50.120;8.698;2022-09-23T13:01:56;3.70;;;2.73;;
1569;SDS011;778;50.120;8.698;2022-09-23T13:04:52;3.70;;;3.40;;
1569;SDS011;778;50.120;8.698;2022-09-23T13:07:45;4.67;;;3.00;;
1569;SDS011;778;50.120;8.698;2022-09-23T13:10:17;3.07;;;2.77;;
1569;SDS011;778;50.120;8.698;2022-09-23T13:12:53;4.13;;;2.57;;
1569;SDS011;778;50.120;8.698;2022-09-23T13:15:26;3.33;;;2.60;;
1569;SDS011;778;50.120;8.698;2022-09-23T13:24:40;5.80;;;2.77;;
1569;SDS011;778;50.120;8.698;2022-09-23T13:27:14;3.63;;;3.17;;
1569;SDS011;778;50.120;8.698;2022-09-23T13:29:55;3.53;;;3.00;;
1569;SDS011;778;50.120;8.698;2022-09-23T13:32:30;4.93;;;3.60;;
1569;SDS011;778;50.120;8.698;2022-09-23T13:35:03;4.13;;;2.80;;
1569;SDS011;778;50.120;8.698;2022-09-23T13:37:41;2.60;;;2.40;;
1569;SDS011;778;50.120;8.698;2022-09-23T13:40:16;5.00;;;4.60;;
1569;SDS011;778;50.120;8.698;2022-09-23T13:42:50;3.97;;;3.23;;
1569;SDS011;778;50.120;8.698;2022-09-23T13:45:24;3.10;;;2.90;;
1569;SDS011;778;50.120;8.698;2022-09-23T13:47:59;3.13;;;2.83;;
1569;SDS011;778;50.120;8.698;2022-09-23T13:50:32;3.30;;;2.73;;
1569;SDS011;778;50.120;8.698;2022-09-23T13:53:06;3.03;;;2.60;;
1569;SDS011;778;50.120;8.698;2022-09-23T13:55:38;4.13;;;3.00;;
1569;SDS011;778;50.120;8.698;2022-09-23T13:58:13;2.80;;;2.60;;
1569;SDS011;778;50.120;8.698;2022-09-23T14:00:46;2.87;;;2.57;;
1569;SDS011;778;50.120;8.698;2022-09-23T14:03:23;3.37;;;2.67;;
1569;SDS011;778;50.120;8.698;2022-09-23T14:06:03;5.47;;;3.30;;
1569;SDS011;778;50.120;8.698;2022-09-23T14:08:37;4.93;;;3.00;;
1569;SDS011;778;50.120;8.698;2022-09-23T14:11:06;3.93;;;3.00;;
1569;SDS011;778;50.120;8.698;2022-09-23T14:13:41;3.60;;;2.63;;
1569;SDS011;778;50.120;8.698;2022-09-23T14:16:12;3.87;;;3.47;;
1569;SDS011;778;50.120;8.698;2022-09-23T14:18:44;4.27;;;3.13;;
1569;SDS011;778;50.120;8.698;2022-09-23T14:21:24;3.00;;;2.70;;
1569;SDS011;778;50.120;8.698;2022-09-23T14:23:55;3.40;;;3.00;;
1569;SDS011;778;50.120;8.698;2022-09-23T14:26:26;2.97;;;2.77;;
1569;SDS011;778;50.120;8.698;2022-09-23T14:28:54;3.67;;;2.33;;
1569;SDS011;778;50.120;8.698;2022-09-23T14:31:23;4.10;;;2.60;;
1569;SDS011;778;50.120;8.698;2022-09-23T14:33:53;2.80;;;2.60;;
1569;SDS011;778;50.120;8.698;2022-09-23T14:36:22;3.97;;;2.70;;
1569;SDS011;778;50.120;8.698;2022-09-23T14:39:08;3.80;;;2.90;;
1569;SDS011;778;50.120;8.698;2022-09-23T14:41:39;4.90;;;3.20;;
1569;SDS011;778;50.120;8.698;2022-09-23T14:44:13;3.27;;;2.97;;
1569;SDS011;778;50.120;8.698;2022-09-23T14:46:50;3.40;;;2.87;;
1569;SDS011;778;50.120;8.698;2022-09-23T14:49:24;3.00;;;2.53;;
1569;SDS011;778;50.120;8.698;2022-09-23T14:51:54;3.10;;;2.90;;
1569;SDS011;778;50.120;8.698;2022-09-23T14:54:29;3.43;;;2.57;;
1569;SDS011;778;50.120;8.698;2022-09-23T14:57:02;4.53;;;3.03;;
1569;SDS011;778;50.120;8.698;2022-09-23T14:59:50;3.10;;;2.87;;
1569;SDS011;778;50.120;8.698;2022-09-23T15:02:28;5.07;;;3.00;;
1569;SDS011;778;50.120;8.698;2022-09-23T15:05:10;3.53;;;3.23;;
1569;SDS011;778;50.120;8.698;2022-09-23T15:07:46;3.30;;;3.10;;
1569;SDS011;778;50.120;8.698;2022-09-23T15:10:17;3.20;;;3.00;;
1569;SDS011;778;50.120;8.698;2022-09-23T15:12:50;3.90;;;2.93;;
1569;SDS011;778;50.120;8.698;2022-09-23T15:15:22;3.37;;;2.73;;
1569;SDS011;778;50.120;8.698;2022-09-23T15:17:54;3.97;;;2.90;;
1569;SDS011;778;50.120;8.698;2022-09-23T15:20:31;4.90;;;3.23;;
1569;SDS011;778;50.120;8.698;2022-09-23T15:23:01;4.03;;;2.93;;
1569;SDS011;778;50.120;8.698;2022-09-23T15:25:30;6.77;;;2.97;;
1569;SDS011;778;50.120;8.698;2022-09-23T15:28:02;9.80;;;2.90;;
1569;SDS011;778;50.120;8.698;2022-09-23T15:30:43;2.90;;;2.60;;
1569;SDS011;778;50.120;8.698;2022-09-23T15:33:12;3.47;;;3.20;;
1569;SDS011;778;50.120;8.698;2022-09-23T15:35:45;7.57;;;3.13;;
1569;SDS011;778;50.120;8.698;2022-09-23T15:38:14;5.70;;;3.30;;
1569;SDS011;778;50.120;8.698;2022-09-23T15:40:44;5.30;;;4.63;;
1569;SDS011;778;50.120;8.698;2022-09-23T15:43:13;3.57;;;3.27;;
1569;SDS011;778;50.120;8.698;2022-09-23T15:45:46;8.90;;;6.13;;
1569;SDS011;778;50.120;8.698;2022-09-23T15:48:19;6.63;;;5.93;;
1569;SDS011;778;50.120;8.698;2022-09-23T15:50:52;4.03;;;3.20;;
1569;SDS011;778;50.120;8.698;2022-09-23T15:53:23;2.90;;;2.60;;
1569;SDS011;778;50.120;8.698;2022-09-23T15:55:55;3.13;;;2.67;;
1569;SDS011;778;50.120;8.698;2022-09-23T15:58:24;3.33;;;3.03;;
1569;SDS011;778;50.120;8.698;2022-09-23T16:00:54;4.10;;;2.80;;
1569;SDS011;778;50.120;8.698;2022-09-23T16:03:23;2.87;;;2.53;;
1569;SDS011;778;50.120;8.698;2022-09-23T16:05:56;4.73;;;3.00;;
1569;SDS011;778;50.120;8.698;2022-09-23T16:08:28;3.87;;;2.87;;
1569;SDS011;778;50.120;8.698;2022-09-23T16:10:58;3.80;;;3.13;;
1569;SDS011;778;50.120;8.698;2022-09-23T16:13:27;4.20;;;3.73;;
1569;SDS011;778;50.120;8.698;2022-09-23T16:15:56;3.10;;;2.80;;
1569;SDS011;778;50.120;8.698;2022-09-23T16:18:25;4.33;;;3.03;;
1569;SDS011;778;50.120;8.698;2022-09-23T16:20:55;4.60;;;3.30;;
1569;SDS011;778;50.120;8.698;2022-09-23T16:23:25;3.80;;;3.50;;
1569;SDS011;778;50.120;8.698;2022-09-23T16:26:03;4.07;;;3.20;;
1569;SDS011;778;50.120;8.698;2022-09-23T16:28:35;2.93;;;2.73;;
1569;SDS011;778;50.120;8.698;2022-09-23T16:31:03;5.07;;;2.80;;
1569;SDS011;778;50.120;8.698;2022-09-23T16:33:32;3.27;;;2.97;;
1569;SDS011;778;50.120;8.698;2022-09-23T16:36:02;3.23;;;2.40;;
1569;SDS011;778;50.120;8.698;2022-09-23T16:38:31;5.40;;;3.13;;
1569;SDS011;778;50.120;8.698;2022-09-23T16:41:00;2.43;;;2.23;;
1569;SDS011;778;50.120;8.698;2022-09-23T16:43:29;6.30;;;3.40;;
1569;SDS011;778;50.120;8.698;2022-09-23T16:46:00;4.30;;;3.00;;
1569;SDS011;778;50.120;8.698;2022-09-23T16:48:29;3.97;;;3.57;;
1569;SDS011;778;50.120;8.698;2022-09-23T16:51:02;2.97;;;2.77;;
1569;SDS011;778;50.120;8.698;2022-09-23T16:53:31;4.90;;;2.90;;